createdAt,value
2023-04-16T00:00:59.077Z,8.7
2023-04-16T00:02:00.115Z,8.7
2023-04-16T00:03:01.296Z,8.8
2023-04-16T00:04:02.287Z,8.8
2023-04-16T00:05:03.212Z,8.8
2023-04-16T00:06:04.046Z,8.8
2023-04-16T00:07:05.129Z,8.7
2023-04-16T00:08:06.082Z,8.7
2023-04-16T00:09:07.344Z,8.6
2023-04-16T00:10:08.092Z,8.6
2023-04-16T00:11:09.037Z,8.6
2023-04-16T00:12:10.065Z,8.5
2023-04-16T00:13:11.076Z,8.5
2023-04-16T00:14:12.072Z,8.3
2023-04-16T00:15:13.078Z,8.2
2023-04-16T00:16:14.061Z,8
2023-04-16T00:17:15.027Z,8.1
2023-04-16T00:18:16.102Z,8.1
2023-04-16T00:19:17.020Z,8.2
2023-04-16T00:20:18.064Z,8.2
2023-04-16T00:21:19.019Z,8.1
2023-04-16T00:22:20.026Z,8.1
2023-04-16T00:23:21.062Z,8.1
2023-04-16T00:24:22.020Z,8
2023-04-16T00:25:23.039Z,8
2023-04-16T00:26:24.067Z,8.1
2023-04-16T00:27:25.080Z,8.1
2023-04-16T00:28:26.038Z,8.1
2023-04-16T00:29:27.061Z,8.1
2023-04-16T00:30:28.067Z,8.1
2023-04-16T00:31:29.079Z,8.2
2023-04-16T00:32:30.123Z,8.2
2023-04-16T00:33:31.017Z,8.2
2023-04-16T00:34:32.041Z,8.2
2023-04-16T00:35:33.091Z,8.1
2023-04-16T00:36:34.056Z,8
2023-04-16T00:37:35.139Z,8
2023-04-16T00:38:36.185Z,7.9
2023-04-16T00:39:37.037Z,7.8
2023-04-16T00:40:38.058Z,7.8
2023-04-16T00:41:39.037Z,7.8
2023-04-16T00:42:40.050Z,7.8
2023-04-16T00:43:41.034Z,7.7
2023-04-16T00:44:42.087Z,7.7
2023-04-16T00:45:43.015Z,7.6
2023-04-16T00:46:44.297Z,7.6
2023-04-16T00:47:45.174Z,7.6
2023-04-16T00:48:46.037Z,7.4
2023-04-16T00:49:47.059Z,7.2
2023-04-16T00:50:48.131Z,7.3
2023-04-16T00:51:49.374Z,7.4
2023-04-16T00:52:50.057Z,7.5
2023-04-16T00:53:51.047Z,7.7
2023-04-16T00:54:52.156Z,7.7
2023-04-16T00:55:53.056Z,7.8
2023-04-16T00:56:54.076Z,7.8
2023-04-16T00:57:55.030Z,7.8
2023-04-16T00:58:56.069Z,7.8
2023-04-16T00:59:57.056Z,7.8
2023-04-16T01:00:58.078Z,7.9
2023-04-16T01:01:59.125Z,7.9
2023-04-16T01:03:00.216Z,7.9
2023-04-16T01:04:01.158Z,7.8
2023-04-16T01:05:02.135Z,7.8
2023-04-16T01:06:03.158Z,7.7
2023-04-16T01:07:04.117Z,7.5
2023-04-16T01:08:05.066Z,7.2
2023-04-16T01:09:06.063Z,7.1
2023-04-16T01:10:07.058Z,7.1
2023-04-16T01:11:08.105Z,7.1
2023-04-16T01:12:09.081Z,7.2
2023-04-16T01:13:10.080Z,7.3
2023-04-16T01:14:11.058Z,7.3
2023-04-16T01:15:14.779Z,7.4
2023-04-16T01:16:16.130Z,7.5
2023-04-16T01:17:17.089Z,7.6
2023-04-16T01:18:18.132Z,7.6
2023-04-16T01:19:19.080Z,7.6
2023-04-16T01:20:20.061Z,7.5
2023-04-16T01:21:21.102Z,7.5
2023-04-16T01:22:22.102Z,7.5
2023-04-16T01:23:23.130Z,7.5
2023-04-16T01:24:24.060Z,7.6
2023-04-16T01:25:25.142Z,7.6
2023-04-16T01:26:26.060Z,7.7
2023-04-16T01:27:27.150Z,7.7
2023-04-16T01:28:28.103Z,7.8
2023-04-16T01:29:29.066Z,7.8
2023-04-16T01:30:30.083Z,7.8
2023-04-16T01:31:31.142Z,7.8
2023-04-16T01:32:32.176Z,7.8
2023-04-16T01:33:33.123Z,7.9
2023-04-16T01:34:34.083Z,7.9
2023-04-16T01:35:36.281Z,7.9
2023-04-16T01:36:37.114Z,7.9
2023-04-16T01:37:38.101Z,7.8
2023-04-16T01:38:39.041Z,7.7
2023-04-16T01:39:40.094Z,7.7
2023-04-16T01:40:41.100Z,7.8
2023-04-16T01:41:42.142Z,7.8
2023-04-16T01:42:43.162Z,7.8
2023-04-16T01:43:44.124Z,7.8
2023-04-16T01:44:45.082Z,7.8
2023-04-16T01:45:46.202Z,7.8
2023-04-16T01:46:47.108Z,7.8
2023-04-16T01:47:49.175Z,7.8
2023-04-16T01:48:50.082Z,7.8
2023-04-16T01:49:51.203Z,7.8
2023-04-16T01:50:52.102Z,7.8
2023-04-16T01:51:53.157Z,7.8
2023-04-16T01:52:54.674Z,7.8
2023-04-16T01:53:56.253Z,7.7
2023-04-16T01:54:57.109Z,7.8
2023-04-16T01:55:58.101Z,7.7
2023-04-16T01:56:59.085Z,7.7
2023-04-16T01:58:00.105Z,7.7
2023-04-16T01:59:01.182Z,7.7
2023-04-16T02:00:02.361Z,7.8
2023-04-16T02:01:03.151Z,7.7
2023-04-16T02:02:04.171Z,7.7
2023-04-16T02:03:05.154Z,7.7
2023-04-16T02:04:06.202Z,7.7
2023-04-16T02:05:07.121Z,7.7
2023-04-16T02:06:08.093Z,7.6
2023-04-16T02:07:09.073Z,7.6
2023-04-16T02:08:10.165Z,7.6
2023-04-16T02:09:11.221Z,7.6
2023-04-16T02:10:12.086Z,7.6
2023-04-16T02:11:13.098Z,7.6
2023-04-16T02:12:14.123Z,7.6
2023-04-16T02:13:15.141Z,7.6
2023-04-16T02:14:16.125Z,7.6
2023-04-16T02:15:17.116Z,7.5
2023-04-16T02:16:18.204Z,7.5
2023-04-16T02:17:19.148Z,7.5
2023-04-16T02:18:20.139Z,7.5
2023-04-16T02:19:21.138Z,7.5
2023-04-16T02:20:22.158Z,7.5
2023-04-16T02:21:23.177Z,7.5
2023-04-16T02:22:24.119Z,7.5
2023-04-16T02:23:25.117Z,7.4
2023-04-16T02:24:26.118Z,7.4
2023-04-16T02:25:27.125Z,7.4
2023-04-16T02:26:28.136Z,7.4
2023-04-16T02:27:29.099Z,7.4
2023-04-16T02:28:30.141Z,7.4
2023-04-16T02:29:31.070Z,7.4
2023-04-16T02:30:32.113Z,7.3
2023-04-16T02:31:33.194Z,7.2
2023-04-16T02:32:34.225Z,7.1
2023-04-16T02:33:35.118Z,7.1
2023-04-16T02:34:37.155Z,7.1
2023-04-16T02:35:38.119Z,7
2023-04-16T02:36:39.137Z,6.9
2023-04-16T02:37:40.148Z,6.8
2023-04-16T02:38:41.095Z,6.8
2023-04-16T02:39:42.224Z,6.7
2023-04-16T02:40:43.114Z,6.7
2023-04-16T02:41:44.124Z,6.7
2023-04-16T02:42:45.134Z,6.7
2023-04-16T02:43:46.115Z,6.7
2023-04-16T02:44:47.123Z,6.6
2023-04-16T02:45:48.196Z,6.6
2023-04-16T02:46:49.116Z,6.6
2023-04-16T02:47:50.120Z,6.7
2023-04-16T02:48:51.180Z,6.7
2023-04-16T02:49:52.121Z,6.7
2023-04-16T02:50:53.096Z,6.7
2023-04-16T02:51:54.105Z,6.7
2023-04-16T02:52:55.101Z,6.8
2023-04-16T02:53:56.118Z,6.9
2023-04-16T02:54:57.139Z,6.9
2023-04-16T02:55:58.116Z,6.9
2023-04-16T02:56:59.098Z,6.9
2023-04-16T02:58:00.135Z,6.9
2023-04-16T02:59:01.156Z,6.9
2023-04-16T03:00:02.220Z,6.9
2023-04-16T03:01:03.177Z,6.9
2023-04-16T03:02:04.106Z,6.8
2023-04-16T03:03:05.167Z,6.8
2023-04-16T03:04:06.174Z,6.9
2023-04-16T03:05:07.130Z,6.9
2023-04-16T03:06:08.123Z,6.8
2023-04-16T03:07:09.136Z,6.9
2023-04-16T03:08:10.168Z,6.9
2023-04-16T03:09:11.320Z,7
2023-04-16T03:10:12.140Z,7.1
2023-04-16T03:11:13.123Z,7.2
2023-04-16T03:12:14.133Z,7.2
2023-04-16T03:13:15.103Z,7.3
2023-04-16T03:14:16.140Z,7.3
2023-04-16T03:15:17.153Z,7.2
2023-04-16T03:16:18.186Z,7.2
2023-04-16T03:17:19.165Z,7.2
2023-04-16T03:18:20.257Z,7.2
2023-04-16T03:19:21.166Z,7.2
2023-04-16T03:20:22.162Z,7.3
2023-04-16T03:21:23.259Z,7.3
2023-04-16T03:22:24.125Z,7.3
2023-04-16T03:23:25.144Z,7.3
2023-04-16T03:24:26.150Z,7.3
2023-04-16T03:25:27.185Z,7.3
2023-04-16T03:26:28.137Z,7.3
2023-04-16T03:27:29.136Z,7.2
2023-04-16T03:28:30.140Z,7.2
2023-04-16T03:29:31.136Z,7.2
2023-04-16T03:30:32.186Z,7.1
2023-04-16T03:31:33.106Z,7.1
2023-04-16T03:32:34.138Z,7.1
2023-04-16T03:33:35.159Z,7
2023-04-16T03:34:36.140Z,6.9
2023-04-16T03:35:37.164Z,6.7
2023-04-16T03:36:38.156Z,6.7
2023-04-16T03:37:39.124Z,6.8
2023-04-16T03:38:40.202Z,6.8
2023-04-16T03:39:41.187Z,6.9
2023-04-16T03:40:42.165Z,7
2023-04-16T03:41:43.260Z,7.1
2023-04-16T03:42:44.141Z,7.1
2023-04-16T03:43:45.159Z,7.2
2023-04-16T03:44:46.199Z,7.3
2023-04-16T03:45:47.164Z,7.3
2023-04-16T03:46:48.193Z,7.4
2023-04-16T03:47:49.163Z,7.4
2023-04-16T03:48:50.159Z,7.4
2023-04-16T03:49:51.144Z,7.4
2023-04-16T03:50:52.162Z,7.5
2023-04-16T03:51:53.118Z,7.5
2023-04-16T03:52:54.123Z,7.5
2023-04-16T03:53:55.169Z,7.5
2023-04-16T03:54:56.218Z,7.6
2023-04-16T03:55:57.124Z,7.6
2023-04-16T03:56:58.132Z,7.6
2023-04-16T03:57:59.213Z,7.6
2023-04-16T03:59:00.162Z,7.7
2023-04-16T04:00:01.443Z,7.7
2023-04-16T04:01:02.197Z,7.7
2023-04-16T04:02:03.201Z,7.7
2023-04-16T04:03:04.418Z,7.7
2023-04-16T04:04:05.378Z,7.6
2023-04-16T04:05:06.276Z,7.6
2023-04-16T04:06:07.168Z,7.6
2023-04-16T04:07:08.247Z,7.6
2023-04-16T04:08:09.160Z,7.7
2023-04-16T04:09:10.300Z,7.7
2023-04-16T04:10:11.208Z,7.7
2023-04-16T04:11:12.188Z,7.7
2023-04-16T04:12:13.180Z,7.8
2023-04-16T04:13:14.141Z,7.9
2023-04-16T04:14:15.142Z,7.9
2023-04-16T04:15:16.160Z,7.9
2023-04-16T04:16:17.173Z,7.9
2023-04-16T04:17:18.140Z,7.9
2023-04-16T04:18:19.128Z,7.9
2023-04-16T04:19:20.202Z,7.8
2023-04-16T04:20:21.184Z,7.8
2023-04-16T04:21:22.190Z,7.7
2023-04-16T04:22:23.210Z,7.6
2023-04-16T04:23:24.160Z,7.6
2023-04-16T04:24:25.182Z,7.6
2023-04-16T04:25:26.212Z,7.6
2023-04-16T04:26:27.189Z,7.4
2023-04-16T04:27:28.141Z,7.3
2023-04-16T04:28:29.160Z,7.3
2023-04-16T04:29:30.162Z,7.3
2023-04-16T04:30:31.227Z,7.5
2023-04-16T04:31:32.164Z,7.6
2023-04-16T04:32:33.195Z,7.6
2023-04-16T04:33:34.170Z,7.7
2023-04-16T04:34:35.159Z,7.8
2023-04-16T04:35:36.247Z,7.8
2023-04-16T04:36:37.162Z,7.8
2023-04-16T04:37:38.197Z,7.8
2023-04-16T04:38:39.170Z,7.8
2023-04-16T04:39:40.207Z,7.8
2023-04-16T04:40:41.177Z,7.9
2023-04-16T04:41:42.341Z,7.9
2023-04-16T04:42:43.186Z,7.9
2023-04-16T04:43:44.198Z,7.9
2023-04-16T04:44:45.200Z,7.9
2023-04-16T04:45:46.221Z,7.9
2023-04-16T04:46:47.180Z,7.9
2023-04-16T04:47:48.205Z,7.8
2023-04-16T04:48:49.213Z,7.8
2023-04-16T04:49:50.162Z,7.8
2023-04-16T04:50:51.187Z,7.8
2023-04-16T04:51:52.138Z,7.8
2023-04-16T04:52:53.199Z,7.7
2023-04-16T04:53:54.206Z,7.7
2023-04-16T04:54:55.202Z,7.7
2023-04-16T04:55:58.604Z,7.7
2023-04-16T04:56:57.184Z,7.7
2023-04-16T04:57:58.160Z,7.7
2023-04-16T04:58:59.201Z,7.7
2023-04-16T05:00:00.216Z,7.7
2023-04-16T05:01:01.245Z,7.7
2023-04-16T05:02:02.296Z,7.7
2023-04-16T05:03:03.286Z,7.7
2023-04-16T05:04:04.575Z,7.7
2023-04-16T05:05:06.285Z,7.8
2023-04-16T05:06:07.223Z,7.8
2023-04-16T05:07:08.209Z,7.8
2023-04-16T05:08:09.199Z,7.8
2023-04-16T05:09:10.414Z,7.9
2023-04-16T05:10:11.226Z,7.8
2023-04-16T05:11:12.325Z,7.8
2023-04-16T05:12:13.209Z,7.7
2023-04-16T05:13:14.258Z,7.7
2023-04-16T05:14:15.227Z,7.7
2023-04-16T05:15:16.513Z,7.6
2023-04-16T05:16:17.415Z,7.5
2023-04-16T05:17:18.286Z,7.3
2023-04-16T05:18:19.310Z,7
2023-04-16T05:19:20.185Z,6.8
2023-04-16T05:20:21.221Z,6.7
2023-04-16T05:21:22.243Z,6.7
2023-04-16T05:22:23.241Z,6.8
2023-04-16T05:23:24.268Z,6.9
2023-04-16T05:24:25.211Z,6.9
2023-04-16T05:25:27.085Z,6.9
2023-04-16T05:26:29.205Z,7
2023-04-16T05:27:30.431Z,7.2
2023-04-16T05:28:31.206Z,7.2
2023-04-16T05:29:32.526Z,7.3
2023-04-16T05:30:34.212Z,7.4
2023-04-16T05:31:35.267Z,7.5
2023-04-16T05:32:36.231Z,7.7
2023-04-16T05:33:37.174Z,7.8
2023-04-16T05:34:38.184Z,7.9
2023-04-16T05:35:39.220Z,8
2023-04-16T05:36:40.312Z,8.1
2023-04-16T05:37:41.308Z,8.1
2023-04-16T05:38:42.283Z,8
2023-04-16T05:39:43.198Z,8
2023-04-16T05:40:44.226Z,8
2023-04-16T05:41:45.259Z,8
2023-04-16T05:42:46.219Z,8.1
2023-04-16T05:43:47.204Z,8.1
2023-04-16T05:44:49.243Z,8.1
2023-04-16T05:45:51.547Z,8.1
2023-04-16T05:46:53.296Z,8.1
2023-04-16T05:47:54.312Z,8.1
2023-04-16T05:48:55.190Z,8.2
2023-04-16T05:49:56.303Z,8.1
2023-04-16T05:50:57.222Z,8.1
2023-04-16T05:51:58.975Z,8.2
2023-04-16T05:53:00.236Z,8.2
2023-04-16T05:54:01.313Z,8.1
2023-04-16T05:55:03.283Z,8
2023-04-16T05:56:04.316Z,8.1
2023-04-16T05:57:05.362Z,8.2
2023-04-16T05:58:06.200Z,8.3
2023-04-16T05:59:07.409Z,8.3
2023-04-16T06:00:08.245Z,8.4
2023-04-16T06:01:09.228Z,8.5
2023-04-16T06:02:10.346Z,8.5
2023-04-16T06:03:11.366Z,8.7
2023-04-16T06:04:12.458Z,8.8
2023-04-16T06:05:14.452Z,8.8
2023-04-16T06:06:16.584Z,8.8
2023-04-16T06:07:18.260Z,8.7
2023-04-16T06:08:19.268Z,8.8
2023-04-16T06:09:20.225Z,8.8
2023-04-16T06:10:21.649Z,8.9
2023-04-16T06:11:23.260Z,8.9
2023-04-16T06:12:24.402Z,8.9
2023-04-16T06:13:26.201Z,8.7
2023-04-16T06:14:27.237Z,8.6
2023-04-16T06:15:28.233Z,8.6
2023-04-16T06:16:29.746Z,8.7
2023-04-16T06:17:31.327Z,8.7
2023-04-16T06:18:32.278Z,8.9
2023-04-16T06:19:33.261Z,9.1
2023-04-16T06:20:34.393Z,9.2
2023-04-16T06:21:36.318Z,9.2
2023-04-16T06:22:37.236Z,9.1
2023-04-16T06:23:38.202Z,9.2
2023-04-16T06:24:39.262Z,9.3
2023-04-16T06:25:40.218Z,9.3
2023-04-16T06:26:41.268Z,9.2
2023-04-16T06:27:42.277Z,8.9
2023-04-16T06:28:43.260Z,8.6
2023-04-16T06:29:44.180Z,8.5
2023-04-16T06:30:45.305Z,8.6
2023-04-16T06:31:46.276Z,8.7
2023-04-16T06:32:47.314Z,8.7
2023-04-16T06:33:48.225Z,8.8
2023-04-16T06:34:49.237Z,8.8
2023-04-16T06:35:50.456Z,8.9
2023-04-16T06:36:51.396Z,8.9
2023-04-16T06:37:52.472Z,9
2023-04-16T06:38:54.224Z,9
2023-04-16T06:39:55.303Z,9
2023-04-16T06:40:56.522Z,9.1
2023-04-16T06:41:57.363Z,9.1
2023-04-16T06:42:58.839Z,9.1
2023-04-16T06:44:00.301Z,9
2023-04-16T06:45:01.320Z,9
2023-04-16T06:46:02.275Z,9
2023-04-16T06:47:03.718Z,9
2023-04-16T06:48:05.326Z,9
2023-04-16T06:49:06.257Z,9
2023-04-16T06:50:07.734Z,9
2023-04-16T06:51:09.223Z,9
2023-04-16T06:52:10.262Z,8.8
2023-04-16T06:53:11.359Z,8.7
2023-04-16T06:54:12.274Z,8.7
2023-04-16T06:55:13.357Z,8.7
2023-04-16T06:56:14.242Z,8.8
2023-04-16T06:57:15.259Z,8.9
2023-04-16T06:58:16.419Z,9
2023-04-16T06:59:17.235Z,9
2023-04-16T07:00:18.216Z,9.1
2023-04-16T07:01:19.205Z,9.1
2023-04-16T07:02:20.308Z,9.1
2023-04-16T07:03:22.116Z,9
2023-04-16T07:04:23.337Z,9
2023-04-16T07:05:24.402Z,9.1
2023-04-16T07:06:25.302Z,9.1
2023-04-16T07:07:26.256Z,9.1
2023-04-16T07:08:27.258Z,9.2
2023-04-16T07:09:28.378Z,9.2
2023-04-16T07:10:29.193Z,9.3
2023-04-16T07:11:30.258Z,9.4
2023-04-16T07:12:31.338Z,9.4
2023-04-16T07:13:32.258Z,9.5
2023-04-16T07:14:33.228Z,9.5
2023-04-16T07:15:34.288Z,9.4
2023-04-16T07:16:35.350Z,9.3
2023-04-16T07:17:36.288Z,9.3
2023-04-16T07:18:37.277Z,9.3
2023-04-16T07:19:38.238Z,9.4
2023-04-16T07:20:39.258Z,9.6
2023-04-16T07:21:40.279Z,9.6
2023-04-16T07:22:41.319Z,9.5
2023-04-16T07:23:42.316Z,9.5
2023-04-16T07:24:43.327Z,9.5
2023-04-16T07:25:44.628Z,9.5
2023-04-16T07:26:45.436Z,9.5
2023-04-16T07:27:46.482Z,9.5
2023-04-16T07:28:47.301Z,9.7
2023-04-16T07:29:48.243Z,9.8
2023-04-16T07:30:50.300Z,9.9
2023-04-16T07:31:51.267Z,9.9
2023-04-16T07:32:53.694Z,9.8
2023-04-16T07:33:54.236Z,9.8
2023-04-16T07:34:55.253Z,9.9
2023-04-16T07:35:56.244Z,10
2023-04-16T07:36:57.282Z,10.2
2023-04-16T07:37:58.290Z,10.3
2023-04-16T07:38:59.278Z,10.5
2023-04-16T07:40:00.245Z,10.6
2023-04-16T07:41:01.281Z,10.5
2023-04-16T07:42:02.417Z,10.5
2023-04-16T07:43:03.323Z,10.6
2023-04-16T07:44:04.624Z,10.7
2023-04-16T07:45:06.398Z,10.6
2023-04-16T07:46:07.356Z,10.6
2023-04-16T07:47:08.303Z,10.6
2023-04-16T07:48:09.312Z,10.6
2023-04-16T07:49:10.418Z,10.7
2023-04-16T07:50:11.259Z,10.7
2023-04-16T07:51:12.332Z,10.6
2023-04-16T07:52:14.346Z,10.4
2023-04-16T07:53:15.260Z,10
2023-04-16T07:54:16.321Z,9.8
2023-04-16T07:55:17.238Z,9.8
2023-04-16T07:56:18.258Z,9.9
2023-04-16T07:57:19.260Z,10
2023-04-16T07:58:20.411Z,10.1
2023-04-16T07:59:23.826Z,10.4
2023-04-16T08:00:23.250Z,10.5
2023-04-16T08:01:24.247Z,10.7
2023-04-16T08:02:25.748Z,10.8
2023-04-16T08:03:27.385Z,10.9
2023-04-16T08:04:28.468Z,11
2023-04-16T08:05:29.405Z,11
2023-04-16T08:06:30.262Z,11
2023-04-16T08:07:32.270Z,11.1
2023-04-16T08:08:32.285Z,11.2
2023-04-16T08:09:33.659Z,11.2
2023-04-16T08:10:35.282Z,11.4
2023-04-16T08:11:36.295Z,11.3
2023-04-16T08:12:37.266Z,11.3
2023-04-16T08:13:38.288Z,11.2
2023-04-16T08:14:39.266Z,11.2
2023-04-16T08:15:40.330Z,11.1
2023-04-16T08:16:41.287Z,11.1
2023-04-16T08:17:42.472Z,11.2
2023-04-16T08:18:43.293Z,11.2
2023-04-16T08:19:44.319Z,11.3
2023-04-16T08:20:45.405Z,11.3
2023-04-16T08:21:47.554Z,11.1
2023-04-16T08:22:48.422Z,10.6
2023-04-16T08:23:49.661Z,10.4
2023-04-16T08:24:51.307Z,10.4
2023-04-16T08:25:53.031Z,10.5
2023-04-16T08:26:53.360Z,10.3
2023-04-16T08:27:54.298Z,10.3
2023-04-16T08:28:55.344Z,10.4
2023-04-16T08:29:56.300Z,10.7
2023-04-16T08:30:57.380Z,10.9
2023-04-16T08:31:58.673Z,10.9
2023-04-16T08:32:59.913Z,11.1
2023-04-16T08:34:01.622Z,11.4
2023-04-16T08:35:03.594Z,11.5
2023-04-16T08:36:04.303Z,11.7
2023-04-16T08:37:05.321Z,11.7
2023-04-16T08:38:06.265Z,11.3
2023-04-16T08:39:07.380Z,11.2
2023-04-16T08:40:08.320Z,11.1
2023-04-16T08:41:09.390Z,11.2
2023-04-16T08:42:11.118Z,11.4
2023-04-16T08:43:12.427Z,11.7
2023-04-16T08:44:13.426Z,11.9
2023-04-16T08:45:14.280Z,12
2023-04-16T08:46:15.428Z,12.2
2023-04-16T08:47:16.594Z,12.3
2023-04-16T08:48:18.326Z,12.6
2023-04-16T08:49:19.392Z,12.8
2023-04-16T08:50:20.265Z,12.9
2023-04-16T08:51:21.300Z,12.7
2023-04-16T08:52:22.320Z,12.7
2023-04-16T08:53:23.301Z,12.7
2023-04-16T08:54:24.385Z,12.7
2023-04-16T08:55:25.801Z,12.8
2023-04-16T08:56:28.003Z,12.9
2023-04-16T08:57:29.462Z,12.8
2023-04-16T08:58:30.303Z,12.9
2023-04-16T08:59:32.367Z,12.6
2023-04-16T09:00:33.312Z,12.5
2023-04-16T09:01:34.369Z,12.6
2023-04-16T09:02:35.477Z,12.7
2023-04-16T09:03:36.986Z,12.9
2023-04-16T09:04:38.530Z,13.1
2023-04-16T09:05:39.350Z,13.3
2023-04-16T09:06:40.317Z,13.4
2023-04-16T09:07:41.321Z,13.5
2023-04-16T09:08:42.340Z,13.7
2023-04-16T09:09:43.461Z,13.8
2023-04-16T09:10:44.306Z,13.7
2023-04-16T09:11:45.374Z,13.7
2023-04-16T09:12:47.325Z,13.8
2023-04-16T09:13:48.308Z,13.9
2023-04-16T09:14:49.401Z,13.7
2023-04-16T09:15:50.371Z,13.6
2023-04-16T09:16:51.295Z,13.6
2023-04-16T09:17:52.339Z,13.7
2023-04-16T09:18:53.387Z,13.7
2023-04-16T09:19:54.321Z,13.6
2023-04-16T09:20:55.317Z,13.6
2023-04-16T09:21:56.302Z,13.7
2023-04-16T09:22:57.507Z,13.7
2023-04-16T09:23:58.339Z,13.7
2023-04-16T09:25:00.220Z,13.8
2023-04-16T09:26:01.337Z,13.9
2023-04-16T09:27:02.323Z,14
2023-04-16T09:28:03.358Z,14
2023-04-16T09:29:04.430Z,14
2023-04-16T09:30:05.376Z,14
2023-04-16T09:31:06.304Z,14
2023-04-16T09:32:07.439Z,14
2023-04-16T09:33:08.298Z,13.9
2023-04-16T09:34:09.327Z,14
2023-04-16T09:35:10.359Z,14.1
2023-04-16T09:36:11.353Z,14.4
2023-04-16T09:37:12.403Z,14.5
2023-04-16T09:38:13.343Z,14.6
2023-04-16T09:39:14.581Z,14.7
2023-04-16T09:40:16.321Z,14.7
2023-04-16T09:41:17.334Z,14.7
2023-04-16T09:42:18.363Z,14.8
2023-04-16T09:43:19.665Z,14.9
2023-04-16T09:44:21.388Z,15.1
2023-04-16T09:45:22.364Z,15.3
2023-04-16T09:46:23.418Z,15.4
2023-04-16T09:47:24.343Z,15.5
2023-04-16T09:48:25.320Z,15.7
2023-04-16T09:49:26.381Z,15.9
2023-04-16T09:50:27.297Z,16
2023-04-16T09:51:28.376Z,16.1
2023-04-16T09:52:29.339Z,16.3
2023-04-16T09:53:30.362Z,16
2023-04-16T09:54:31.401Z,15.9
2023-04-16T09:55:32.543Z,16
2023-04-16T09:56:33.582Z,16
2023-04-16T09:57:34.357Z,15.8
2023-04-16T09:58:35.327Z,15.6
2023-04-16T09:59:36.518Z,15.5
2023-04-16T10:00:38.834Z,15.5
2023-04-16T10:01:38.388Z,15.6
2023-04-16T10:02:39.519Z,15.7
2023-04-16T10:03:40.540Z,15.8
2023-04-16T10:04:41.422Z,15.8
2023-04-16T10:05:42.309Z,15.9
2023-04-16T10:06:43.675Z,15.9
2023-04-16T10:07:44.365Z,15.9
2023-04-16T10:08:45.961Z,15.8
2023-04-16T10:09:47.556Z,15.8
2023-04-16T10:10:48.720Z,15.7
2023-04-16T10:11:50.382Z,15.8
2023-04-16T10:12:51.370Z,15.7
2023-04-16T10:13:52.305Z,15.6
2023-04-16T10:14:53.377Z,15.7
2023-04-16T10:15:54.395Z,15.8
2023-04-16T10:16:55.355Z,15.5
2023-04-16T10:17:56.439Z,15.3
2023-04-16T10:18:57.394Z,15.4
2023-04-16T10:19:59.563Z,15.4
2023-04-16T10:21:00.349Z,15.6
2023-04-16T10:22:01.331Z,15.7
2023-04-16T10:23:02.503Z,15.5
2023-04-16T10:24:03.420Z,15.4
2023-04-16T10:25:04.407Z,15.3
2023-04-16T10:26:05.393Z,15.1
2023-04-16T10:27:06.342Z,14.7
2023-04-16T10:28:07.526Z,14.6
2023-04-16T10:29:08.481Z,14.6
2023-04-16T10:30:09.411Z,14.6
2023-04-16T10:31:10.439Z,14.7
2023-04-16T10:32:11.462Z,14.8
2023-04-16T10:33:12.756Z,14.9
2023-04-16T10:34:13.364Z,15.2
2023-04-16T10:35:14.404Z,15.3
2023-04-16T10:36:15.361Z,15.5
2023-04-16T10:37:16.358Z,15.7
2023-04-16T10:38:17.420Z,15.9
2023-04-16T10:39:18.381Z,16
2023-04-16T10:40:19.353Z,16.1
2023-04-16T10:41:20.361Z,16.3
2023-04-16T10:42:21.438Z,16.1
2023-04-16T10:43:22.446Z,16
2023-04-16T10:44:23.382Z,16
2023-04-16T10:45:24.424Z,16.2
2023-04-16T10:46:25.360Z,16.4
2023-04-16T10:47:26.388Z,16.3
2023-04-16T10:48:30.879Z,16
2023-04-16T10:49:28.401Z,15.8
2023-04-16T10:50:29.339Z,15.9
2023-04-16T10:51:30.374Z,16
2023-04-16T10:52:31.316Z,16.2
2023-04-16T10:53:32.784Z,16.2
2023-04-16T10:54:33.622Z,16.3
2023-04-16T10:55:34.440Z,16.5
2023-04-16T10:56:35.401Z,16.7
2023-04-16T10:57:37.479Z,16.9
2023-04-16T10:58:38.420Z,17.1
2023-04-16T10:59:39.450Z,17.2
2023-04-16T11:00:40.340Z,17.4
2023-04-16T11:01:41.410Z,17.6
2023-04-16T11:02:42.579Z,17.6
2023-04-16T11:03:43.482Z,17.6
2023-04-16T11:04:44.468Z,17.5
2023-04-16T11:05:45.451Z,17.6
2023-04-16T11:06:46.404Z,17.6
2023-04-16T11:07:48.905Z,17.7
2023-04-16T11:08:54.311Z,17.6
2023-04-16T11:09:50.361Z,17.5
2023-04-16T11:10:51.443Z,17.3
2023-04-16T11:11:52.360Z,17.4
2023-04-16T11:12:53.339Z,17.4
2023-04-16T11:13:54.338Z,17.5
2023-04-16T11:14:55.421Z,17.5
2023-04-16T11:15:56.528Z,17.6
2023-04-16T11:16:57.426Z,17.7
2023-04-16T11:17:58.423Z,17.7
2023-04-16T11:18:59.575Z,17.9
2023-04-16T11:20:00.455Z,18.1
2023-04-16T11:21:01.534Z,18.2
2023-04-16T11:22:02.412Z,18.3
2023-04-16T11:23:03.377Z,18.4
2023-04-16T11:24:04.354Z,18.4
2023-04-16T11:25:05.462Z,18.6
2023-04-16T11:26:06.415Z,18.7
2023-04-16T11:27:07.381Z,18.9
2023-04-16T11:28:08.403Z,18.8
2023-04-16T11:29:09.483Z,18.7
2023-04-16T11:30:10.419Z,18.7
2023-04-16T11:31:11.500Z,18.7
2023-04-16T11:32:12.380Z,18.6
2023-04-16T11:33:13.414Z,18.3
2023-04-16T11:34:14.365Z,17.9
2023-04-16T11:35:15.866Z,17.6
2023-04-16T11:36:17.400Z,17.5
2023-04-16T11:37:18.419Z,17.6
2023-04-16T11:38:19.437Z,17.6
2023-04-16T11:39:20.409Z,17.7
2023-04-16T11:40:21.539Z,17.8
2023-04-16T11:41:22.465Z,17.7
2023-04-16T11:42:23.415Z,17.4
2023-04-16T11:43:24.456Z,17.3
2023-04-16T11:44:25.459Z,17.4
2023-04-16T11:45:26.444Z,17.4
2023-04-16T11:46:28.011Z,17.4
2023-04-16T11:47:28.445Z,17.5
2023-04-16T11:48:29.497Z,17.5
2023-04-16T11:49:30.459Z,17.6
2023-04-16T11:50:31.460Z,17.8
2023-04-16T11:51:32.419Z,17.9
2023-04-16T11:52:33.425Z,17.8
2023-04-16T11:53:34.449Z,17.9
2023-04-16T11:54:35.431Z,17.9
2023-04-16T11:55:36.382Z,18.1
2023-04-16T11:56:37.339Z,18
2023-04-16T11:57:38.389Z,17.9
2023-04-16T11:58:42.566Z,17.7
2023-04-16T12:00:01.303Z,17.5
2023-04-16T12:00:41.379Z,17.1
2023-04-16T12:01:42.491Z,16.9
2023-04-16T12:02:43.626Z,16.7
2023-04-16T12:03:44.630Z,16.6
2023-04-16T12:04:45.554Z,16.4
2023-04-16T12:05:46.477Z,16.1
2023-04-16T12:06:47.461Z,16.3
2023-04-16T12:07:48.510Z,16.5
2023-04-16T12:08:49.387Z,16.8
2023-04-16T12:09:50.393Z,17
2023-04-16T12:10:51.400Z,17.3
2023-04-16T12:11:52.475Z,17.5
2023-04-16T12:12:53.432Z,17.7
2023-04-16T12:13:54.428Z,17.7
2023-04-16T12:14:55.461Z,17.7
2023-04-16T12:15:56.765Z,17.9
2023-04-16T12:16:57.936Z,18.1
2023-04-16T12:18:00.234Z,18.4
2023-04-16T12:19:01.404Z,18.6
2023-04-16T12:20:02.479Z,18.5
2023-04-16T12:21:03.632Z,18.4
2023-04-16T12:22:04.487Z,18.3
2023-04-16T12:23:05.420Z,18.1
2023-04-16T12:24:06.445Z,18.1
2023-04-16T12:25:07.445Z,18
2023-04-16T12:26:08.563Z,18
2023-04-16T12:27:09.564Z,18.1
2023-04-16T12:28:10.388Z,18.2
2023-04-16T12:29:11.598Z,18.3
2023-04-16T12:30:12.419Z,18.4
2023-04-16T12:31:13.898Z,18.5
2023-04-16T12:32:15.462Z,18.6
2023-04-16T12:33:16.483Z,18.9
2023-04-16T12:34:17.450Z,19.1
2023-04-16T12:35:18.397Z,19.5
2023-04-16T12:36:19.430Z,19.8
2023-04-16T12:37:20.415Z,20.1
2023-04-16T12:38:23.663Z,20.4
2023-04-16T12:39:22.410Z,20.6
2023-04-16T12:40:23.443Z,20.9
2023-04-16T12:41:24.428Z,21.1
2023-04-16T12:42:25.400Z,21.1
2023-04-16T12:43:26.598Z,21
2023-04-16T12:44:27.442Z,21.1
2023-04-16T12:45:28.433Z,21.2
2023-04-16T12:46:29.463Z,21.2
2023-04-16T12:47:30.486Z,21.3
2023-04-16T12:48:31.671Z,21.5
2023-04-16T12:49:32.415Z,21.7
2023-04-16T12:50:33.892Z,21.5
2023-04-16T12:51:35.527Z,21.2
2023-04-16T12:52:36.414Z,20.8
2023-04-16T12:53:37.462Z,20.4
2023-04-16T12:54:38.442Z,20.3
2023-04-16T12:55:39.543Z,20
2023-04-16T12:56:40.936Z,19.7
2023-04-16T12:57:42.535Z,19.7
2023-04-16T12:58:43.536Z,19.8
2023-04-16T12:59:44.529Z,19.8
2023-04-16T13:00:45.425Z,19.5
2023-04-16T13:01:46.515Z,19.4
2023-04-16T13:02:47.696Z,19.5
2023-04-16T13:03:48.667Z,19.6
2023-04-16T13:04:49.518Z,19.7
2023-04-16T13:05:50.395Z,19.9
2023-04-16T13:06:51.636Z,20.1
2023-04-16T13:07:53.515Z,20.1
2023-04-16T13:08:54.480Z,20.2
2023-04-16T13:09:55.461Z,20.2
2023-04-16T13:10:56.466Z,20.3
2023-04-16T13:11:57.639Z,20.4
2023-04-16T13:12:58.433Z,20.4
2023-04-16T13:13:59.843Z,20.4
2023-04-16T13:15:01.457Z,20.4
2023-04-16T13:16:02.539Z,20.4
2023-04-16T13:17:03.473Z,20.3
2023-04-16T13:18:04.451Z,20.3
2023-04-16T13:19:05.461Z,20.2
2023-04-16T13:20:06.460Z,20.1
2023-04-16T13:21:07.444Z,20
2023-04-16T13:22:08.560Z,19.9
2023-04-16T13:23:09.441Z,19.6
2023-04-16T13:24:10.916Z,19.3
2023-04-16T13:25:12.517Z,19.1
2023-04-16T13:26:13.481Z,18.9
2023-04-16T13:27:14.555Z,18.6
2023-04-16T13:28:15.436Z,18.4
2023-04-16T13:29:16.457Z,18.3
2023-04-16T13:30:17.646Z,18
2023-04-16T13:31:18.545Z,17.8
2023-04-16T13:32:19.550Z,17.3
2023-04-16T13:33:21.527Z,17
2023-04-16T13:34:22.569Z,17
2023-04-16T13:35:23.528Z,17
2023-04-16T13:36:26.317Z,16.9
2023-04-16T13:37:25.736Z,16.9
2023-04-16T13:38:27.500Z,16.7
2023-04-16T13:39:28.488Z,16.7
2023-04-16T13:40:29.496Z,16.7
2023-04-16T13:41:30.983Z,16.7
2023-04-16T13:42:32.513Z,16.8
2023-04-16T13:43:34.204Z,16.8
2023-04-16T13:44:35.537Z,16.9
2023-04-16T13:45:36.722Z,16.9
2023-04-16T13:46:38.482Z,16.9
2023-04-16T13:47:39.470Z,17
2023-04-16T13:48:40.515Z,17.2
2023-04-16T13:49:41.502Z,17.3
2023-04-16T13:50:42.491Z,17.4
2023-04-16T13:51:43.604Z,17.4
2023-04-16T13:52:44.497Z,17.4